sensor_id;sensor_type;location;lat;lon;timestamp;pressure;altitude;pressure_sealevel;temperature;humidity
21728;BME280;11026;50.560;17.852;2023-12-20T00:01:08;99066.03;;;5.47;100.00
21728;BME280;11026;50.560;17.852;2023-12-20T00:03:35;99051.09;;;5.49;100.00
21728;BME280;11026;50.560;17.852;2023-12-20T00:06:09;99036.09;;;5.52;100.00
21728;BME280;11026;50.560;17.852;2023-12-20T00:08:37;99025.78;;;5.46;100.00
21728;BME280;11026;50.560;17.852;2023-12-20T00:11:07;99019.44;;;5.53;100.00
21728;BME280;11026;50.560;17.852;2023-12-20T00:13:34;99029.25;;;5.48;100.00
21728;BME280;11026;50.560;17.852;2023-12-20T00:16:02;99038.03;;;5.47;100.00
21728;BME280;11026;50.560;17.852;2023-12-20T00:18:29;99039.91;;;5.42;100.00
21728;BME280;11026;50.560;17.852;2023-12-20T00:20:56;99024.22;;;5.40;100.00
21728;BME280;11026;50.560;17.852;2023-12-20T00:23:23;99028.19;;;5.54;100.00
21728;BME280;11026;50.560;17.852;2023-12-20T00:25:53;99022.84;;;5.57;100.00
21728;BME280;11026;50.560;17.852;2023-12-20T00:28:20;99030.84;;;5.52;100.00
21728;BME280;11026;50.560;17.852;2023-12-20T00:30:47;99037.63;;;5.59;100.00
21728;BME280;11026;50.560;17.852;2023-12-20T00:33:15;99038.78;;;5.51;100.00
21728;BME280;11026;50.560;17.852;2023-12-20T00:35:42;99038.81;;;5.49;100.00
21728;BME280;11026;50.560;17.852;2023-12-20T00:38:09;99033.63;;;5.48;100.00
21728;BME280;11026;50.560;17.852;2023-12-20T00:40:40;99024.78;;;5.50;100.00
21728;BME280;11026;50.560;17.852;2023-12-20T00:43:08;99027.53;;;5.47;100.00
21728;BME280;11026;50.560;17.852;2023-12-20T00:45:35;99015.34;;;5.45;100.00
21728;BME280;11026;50.560;17.852;2023-12-20T00:48:05;99022.47;;;5.41;100.00
21728;BME280;11026;50.560;17.852;2023-12-20T00:50:34;99028.28;;;5.51;100.00
21728;BME280;11026;50.560;17.852;2023-12-20T00:53:04;99011.50;;;5.56;100.00
21728;BME280;11026;50.560;17.852;2023-12-20T00:55:32;99001.31;;;5.46;100.00
21728;BME280;11026;50.560;17.852;2023-12-20T00:57:59;99003.25;;;5.40;100.00
21728;BME280;11026;50.560;17.852;2023-12-20T01:00:27;99006.34;;;5.53;100.00
21728;BME280;11026;50.560;17.852;2023-12-20T01:02:54;99006.53;;;5.47;100.00
21728;BME280;11026;50.560;17.852;2023-12-20T01:05:24;99004.06;;;5.42;100.00
21728;BME280;11026;50.560;17.852;2023-12-20T01:07:51;99024.28;;;5.67;100.00
21728;BME280;11026;50.560;17.852;2023-12-20T01:10:18;99034.19;;;5.57;100.00
21728;BME280;11026;50.560;17.852;2023-12-20T01:12:48;99032.38;;;5.31;100.00
21728;BME280;11026;50.560;17.852;2023-12-20T01:15:16;99025.78;;;5.18;100.00
21728;BME280;11026;50.560;17.852;2023-12-20T01:17:44;99025.00;;;5.16;100.00
21728;BME280;11026;50.560;17.852;2023-12-20T01:20:11;99016.81;;;5.27;100.00
21728;BME280;11026;50.560;17.852;2023-12-20T01:22:40;99014.91;;;5.30;100.00
21728;BME280;11026;50.560;17.852;2023-12-20T01:25:07;99016.84;;;5.25;100.00
21728;BME280;11026;50.560;17.852;2023-12-20T01:27:34;98996.31;;;5.38;100.00
21728;BME280;11026;50.560;17.852;2023-12-20T01:30:01;98994.47;;;5.41;100.00
21728;BME280;11026;50.560;17.852;2023-12-20T01:32:31;98993.22;;;5.53;100.00
21728;BME280;11026;50.560;17.852;2023-12-20T01:34:58;98993.59;;;5.41;100.00
21728;BME280;11026;50.560;17.852;2023-12-20T01:37:30;98991.38;;;5.29;100.00
21728;BME280;11026;50.560;17.852;2023-12-20T01:39:57;98989.59;;;5.29;100.00
21728;BME280;11026;50.560;17.852;2023-12-20T01:42:26;98996.00;;;5.21;100.00
21728;BME280;11026;50.560;17.852;2023-12-20T01:44:53;98990.75;;;5.21;100.00
21728;BME280;11026;50.560;17.852;2023-12-20T01:47:22;98980.19;;;5.24;100.00
21728;BME280;11026;50.560;17.852;2023-12-20T01:49:50;98980.88;;;5.29;100.00
21728;BME280;11026;50.560;17.852;2023-12-20T01:52:19;98971.22;;;5.31;100.00
21728;BME280;11026;50.560;17.852;2023-12-20T01:54:52;98957.72;;;5.15;100.00
21728;BME280;11026;50.560;17.852;2023-12-20T01:57:22;98953.13;;;5.22;100.00
21728;BME280;11026;50.560;17.852;2023-12-20T01:59:49;98955.59;;;5.26;100.00
21728;BME280;11026;50.560;17.852;2023-12-20T02:02:17;98954.56;;;5.32;100.00
21728;BME280;11026;50.560;17.852;2023-12-20T02:04:44;98957.81;;;5.40;100.00
21728;BME280;11026;50.560;17.852;2023-12-20T02:07:12;98947.09;;;5.46;100.00
21728;BME280;11026;50.560;17.852;2023-12-20T02:09:39;98940.28;;;5.40;100.00
21728;BME280;11026;50.560;17.852;2023-12-20T02:12:07;98949.41;;;5.29;100.00
21728;BME280;11026;50.560;17.852;2023-12-20T02:14:35;98955.50;;;5.29;100.00
21728;BME280;11026;50.560;17.852;2023-12-20T02:17:03;98954.56;;;5.32;100.00
21728;BME280;11026;50.560;17.852;2023-12-20T02:19:30;98941.47;;;5.32;100.00
21728;BME280;11026;50.560;17.852;2023-12-20T02:22:25;98952.97;;;5.26;100.00
21728;BME280;11026;50.560;17.852;2023-12-20T02:24:54;98942.47;;;5.28;100.00
21728;BME280;11026;50.560;17.852;2023-12-20T02:27:21;98944.16;;;5.29;100.00
21728;BME280;11026;50.560;17.852;2023-12-20T02:29:51;98932.88;;;5.27;100.00
21728;BME280;11026;50.560;17.852;2023-12-20T02:32:18;98939.25;;;5.18;100.00
21728;BME280;11026;50.560;17.852;2023-12-20T02:34:47;98944.47;;;5.20;100.00
21728;BME280;11026;50.560;17.852;2023-12-20T02:37:15;98946.47;;;5.11;100.00
21728;BME280;11026;50.560;17.852;2023-12-20T02:39:42;98938.50;;;5.14;100.00
21728;BME280;11026;50.560;17.852;2023-12-20T02:42:10;98938.63;;;5.11;100.00
21728;BME280;11026;50.560;17.852;2023-12-20T02:44:38;98937.78;;;5.09;100.00
21728;BME280;11026;50.560;17.852;2023-12-20T02:47:05;98929.97;;;5.08;100.00
21728;BME280;11026;50.560;17.852;2023-12-20T02:49:34;98923.72;;;5.12;100.00
21728;BME280;11026;50.560;17.852;2023-12-20T02:52:02;98928.22;;;5.08;100.00
21728;BME280;11026;50.560;17.852;2023-12-20T02:54:32;98921.97;;;5.12;100.00
21728;BME280;11026;50.560;17.852;2023-12-20T02:56:59;98927.22;;;5.12;100.00
21728;BME280;11026;50.560;17.852;2023-12-20T02:59:26;98918.81;;;5.01;100.00
21728;BME280;11026;50.560;17.852;2023-12-20T03:01:53;98915.28;;;5.02;100.00
21728;BME280;11026;50.560;17.852;2023-12-20T03:04:20;98913.56;;;5.01;100.00
21728;BME280;11026;50.560;17.852;2023-12-20T03:06:47;98911.47;;;5.12;100.00
21728;BME280;11026;50.560;17.852;2023-12-20T03:09:15;98923.38;;;4.94;100.00
21728;BME280;11026;50.560;17.852;2023-12-20T03:11:45;98913.78;;;4.95;100.00
21728;BME280;11026;50.560;17.852;2023-12-20T03:14:16;98897.84;;;5.01;100.00
21728;BME280;11026;50.560;17.852;2023-12-20T03:16:49;98894.38;;;5.01;100.00
21728;BME280;11026;50.560;17.852;2023-12-20T03:19:18;98894.28;;;5.04;100.00
21728;BME280;11026;50.560;17.852;2023-12-20T03:21:47;98896.84;;;5.05;100.00
21728;BME280;11026;50.560;17.852;2023-12-20T03:24:14;98902.00;;;5.08;100.00
21728;BME280;11026;50.560;17.852;2023-12-20T03:26:41;98894.28;;;5.04;100.00
21728;BME280;11026;50.560;17.852;2023-12-20T03:29:08;98899.38;;;5.08;100.00
21728;BME280;11026;50.560;17.852;2023-12-20T03:31:35;98897.91;;;5.26;100.00
21728;BME280;11026;50.560;17.852;2023-12-20T03:34:02;98892.19;;;5.15;100.00
21728;BME280;11026;50.560;17.852;2023-12-20T03:36:29;98890.50;;;5.12;100.00
21728;BME280;11026;50.560;17.852;2023-12-20T03:38:57;98892.06;;;5.18;100.00
21728;BME280;11026;50.560;17.852;2023-12-20T03:41:24;98896.81;;;5.07;100.00
21728;BME280;11026;50.560;17.852;2023-12-20T03:43:51;98901.19;;;5.06;100.00
21728;BME280;11026;50.560;17.852;2023-12-20T03:46:20;98899.69;;;4.99;100.00
21728;BME280;11026;50.560;17.852;2023-12-20T03:48:47;98897.94;;;4.98;100.00
21728;BME280;11026;50.560;17.852;2023-12-20T03:51:14;98901.47;;;4.97;100.00
21728;BME280;11026;50.560;17.852;2023-12-20T03:53:41;98897.16;;;4.96;100.00
21728;BME280;11026;50.560;17.852;2023-12-20T03:56:09;98905.72;;;5.01;100.00
21728;BME280;11026;50.560;17.852;2023-12-20T03:58:40;98900.53;;;5.00;100.00
21728;BME280;11026;50.560;17.852;2023-12-20T04:01:10;98898.06;;;4.95;100.00
21728;BME280;11026;50.560;17.852;2023-12-20T04:03:41;98890.13;;;4.97;100.00
21728;BME280;11026;50.560;17.852;2023-12-20T04:06:08;98893.53;;;5.00;100.00
21728;BME280;11026;50.560;17.852;2023-12-20T04:08:37;98897.16;;;4.94;100.00
21728;BME280;11026;50.560;17.852;2023-12-20T04:11:04;98903.31;;;4.95;100.00
21728;BME280;11026;50.560;17.852;2023-12-20T04:13:31;98904.16;;;4.96;100.00
21728;BME280;11026;50.560;17.852;2023-12-20T04:15:58;98908.63;;;4.92;100.00
21728;BME280;11026;50.560;17.852;2023-12-20T04:18:25;98909.63;;;4.88;100.00
21728;BME280;11026;50.560;17.852;2023-12-20T04:20:53;98899.00;;;4.92;100.00
21728;BME280;11026;50.560;17.852;2023-12-20T04:23:21;98905.19;;;4.90;100.00
21728;BME280;11026;50.560;17.852;2023-12-20T04:25:49;98906.38;;;4.80;100.00
21728;BME280;11026;50.560;17.852;2023-12-20T04:28:16;98893.81;;;4.91;100.00
21728;BME280;11026;50.560;17.852;2023-12-20T04:30:43;98892.38;;;4.81;100.00
21728;BME280;11026;50.560;17.852;2023-12-20T04:33:11;98893.38;;;4.77;100.00
21728;BME280;11026;50.560;17.852;2023-12-20T04:35:39;98899.41;;;4.79;100.00
21728;BME280;11026;50.560;17.852;2023-12-20T04:38:09;98909.25;;;4.71;100.00
21728;BME280;11026;50.560;17.852;2023-12-20T04:40:40;98914.41;;;4.74;100.00
21728;BME280;11026;50.560;17.852;2023-12-20T04:43:07;98905.47;;;4.81;100.00
21728;BME280;11026;50.560;17.852;2023-12-20T04:45:36;98912.09;;;4.64;100.00
21728;BME280;11026;50.560;17.852;2023-12-20T04:48:04;98911.19;;;4.65;100.00
21728;BME280;11026;50.560;17.852;2023-12-20T04:50:32;98907.38;;;4.76;100.00
21728;BME280;11026;50.560;17.852;2023-12-20T04:53:00;98901.28;;;4.75;100.00
21728;BME280;11026;50.560;17.852;2023-12-20T04:55:29;98897.94;;;4.70;100.00
21728;BME280;11026;50.560;17.852;2023-12-20T04:57:56;98893.69;;;4.66;100.00
21728;BME280;11026;50.560;17.852;2023-12-20T05:00:24;98892.75;;;4.68;100.00
21728;BME280;11026;50.560;17.852;2023-12-20T05:02:51;98892.03;;;4.63;100.00
21728;BME280;11026;50.560;17.852;2023-12-20T05:05:19;98895.47;;;4.65;100.00
21728;BME280;11026;50.560;17.852;2023-12-20T05:07:46;98900.84;;;4.61;100.00
21728;BME280;11026;50.560;17.852;2023-12-20T05:10:13;98897.41;;;4.59;100.00
21728;BME280;11026;50.560;17.852;2023-12-20T05:12:41;98889.59;;;4.57;100.00
21728;BME280;11026;50.560;17.852;2023-12-20T05:15:09;98887.91;;;4.55;100.00
21728;BME280;11026;50.560;17.852;2023-12-20T05:17:36;98882.72;;;4.53;100.00
21728;BME280;11026;50.560;17.852;2023-12-20T05:20:06;98877.56;;;4.52;100.00
21728;BME280;11026;50.560;17.852;2023-12-20T05:22:34;98884.50;;;4.53;100.00
21728;BME280;11026;50.560;17.852;2023-12-20T05:25:01;98887.97;;;4.53;100.00
21728;BME280;11026;50.560;17.852;2023-12-20T05:27:29;98885.25;;;4.56;100.00
21728;BME280;11026;50.560;17.852;2023-12-20T05:29:56;98883.63;;;4.52;100.00
21728;BME280;11026;50.560;17.852;2023-12-20T05:32:24;98888.75;;;4.57;100.00
21728;BME280;11026;50.560;17.852;2023-12-20T05:34:52;98890.66;;;4.50;100.00
21728;BME280;11026;50.560;17.852;2023-12-20T05:37:20;98887.91;;;4.55;100.00
21728;BME280;11026;50.560;17.852;2023-12-20T05:39:47;98890.50;;;4.56;100.00
21728;BME280;11026;50.560;17.852;2023-12-20T05:42:15;98906.31;;;4.53;100.00
21728;BME280;11026;50.560;17.852;2023-12-20T05:44:43;98892.53;;;4.47;100.00
21728;BME280;11026;50.560;17.852;2023-12-20T05:47:14;98909.00;;;4.50;100.00
21728;BME280;11026;50.560;17.852;2023-12-20T05:49:42;98892.38;;;4.51;100.00
21728;BME280;11026;50.560;17.852;2023-12-20T05:52:09;98903.78;;;4.50;100.00
21728;BME280;11026;50.560;17.852;2023-12-20T05:54:37;98901.22;;;4.47;100.00
21728;BME280;11026;50.560;17.852;2023-12-20T05:57:05;98896.00;;;4.47;100.00
21728;BME280;11026;50.560;17.852;2023-12-20T05:59:32;98895.91;;;4.50;100.00
21728;BME280;11026;50.560;17.852;2023-12-20T06:02:04;98895.19;;;4.45;100.00
21728;BME280;11026;50.560;17.852;2023-12-20T06:04:32;98905.72;;;4.43;100.00
21728;BME280;11026;50.560;17.852;2023-12-20T06:07:02;98900.28;;;4.50;100.00
21728;BME280;11026;50.560;17.852;2023-12-20T06:09:30;98908.28;;;4.45;100.00
21728;BME280;11026;50.560;17.852;2023-12-20T06:11:59;98912.81;;;4.40;100.00
21728;BME280;11026;50.560;17.852;2023-12-20T06:14:26;98918.13;;;4.37;100.00
21728;BME280;11026;50.560;17.852;2023-12-20T06:16:53;98916.22;;;4.42;100.00
21728;BME280;11026;50.560;17.852;2023-12-20T06:19:21;98917.84;;;4.46;100.00
21728;BME280;11026;50.560;17.852;2023-12-20T06:21:48;98922.47;;;4.38;100.00
21728;BME280;11026;50.560;17.852;2023-12-20T06:24:16;98923.38;;;4.37;100.00
21728;BME280;11026;50.560;17.852;2023-12-20T06:26:43;98925.72;;;4.46;100.00
21728;BME280;11026;50.560;17.852;2023-12-20T06:29:10;98918.13;;;4.37;100.00
21728;BME280;11026;50.560;17.852;2023-12-20T06:31:37;98919.13;;;4.33;100.00
21728;BME280;11026;50.560;17.852;2023-12-20T06:34:05;98912.06;;;4.35;100.00
21728;BME280;11026;50.560;17.852;2023-12-20T06:36:32;98918.94;;;4.39;100.00
21728;BME280;11026;50.560;17.852;2023-12-20T06:38:59;98915.66;;;4.31;100.00
21728;BME280;11026;50.560;17.852;2023-12-20T06:41:27;98919.13;;;4.33;100.00
21728;BME280;11026;50.560;17.852;2023-12-20T06:43:54;98916.72;;;4.25;100.00
21728;BME280;11026;50.560;17.852;2023-12-20T06:46:23;98915.66;;;4.31;100.00
21728;BME280;11026;50.560;17.852;2023-12-20T06:48:52;98914.19;;;4.22;100.00
21728;BME280;11026;50.560;17.852;2023-12-20T06:51:19;98920.97;;;4.29;100.00
21728;BME280;11026;50.560;17.852;2023-12-20T06:53:47;98912.34;;;4.26;100.00
21728;BME280;11026;50.560;17.852;2023-12-20T06:56:17;98921.03;;;4.26;100.00
21728;BME280;11026;50.560;17.852;2023-12-20T06:58:46;98921.19;;;4.22;100.00
21728;BME280;11026;50.560;17.852;2023-12-20T07:01:13;98926.47;;;4.20;100.00
21728;BME280;11026;50.560;17.852;2023-12-20T07:03:41;98928.19;;;4.19;100.00
21728;BME280;11026;50.560;17.852;2023-12-20T07:06:08;98928.13;;;4.23;100.00
21728;BME280;11026;50.560;17.852;2023-12-20T07:08:35;98938.84;;;4.13;100.00
21728;BME280;11026;50.560;17.852;2023-12-20T07:11:02;98931.09;;;4.10;100.00
21728;BME280;11026;50.560;17.852;2023-12-20T07:13:30;98924.00;;;4.14;100.00
21728;BME280;11026;50.560;17.852;2023-12-20T07:15:57;98926.41;;;4.22;100.00
21728;BME280;11026;50.560;17.852;2023-12-20T07:18:24;98931.59;;;4.23;100.00
21728;BME280;11026;50.560;17.852;2023-12-20T07:20:52;98937.03;;;4.15;100.00
21728;BME280;11026;50.560;17.852;2023-12-20T07:23:21;98941.47;;;4.13;100.00
21728;BME280;11026;50.560;17.852;2023-12-20T07:25:48;98933.41;;;4.21;100.00
21728;BME280;11026;50.560;17.852;2023-12-20T07:28:15;98927.25;;;4.22;100.00
21728;BME280;11026;50.560;17.852;2023-12-20T07:30:42;98927.47;;;4.14;100.00
21728;BME280;11026;50.560;17.852;2023-12-20T07:33:10;98926.75;;;4.09;100.00
21728;BME280;11026;50.560;17.852;2023-12-20T07:35:39;98929.09;;;4.20;100.00
21728;BME280;11026;50.560;17.852;2023-12-20T07:38:07;98941.63;;;4.07;100.00
21728;BME280;11026;50.560;17.852;2023-12-20T07:40:35;98939.00;;;4.07;100.00
21728;BME280;11026;50.560;17.852;2023-12-20T07:43:02;98944.25;;;4.07;100.00
21728;BME280;11026;50.560;17.852;2023-12-20T07:45:29;98938.00;;;4.13;100.00
21728;BME280;11026;50.560;17.852;2023-12-20T07:47:56;98948.41;;;4.14;100.00
21728;BME280;11026;50.560;17.852;2023-12-20T07:50:23;98946.78;;;4.10;100.00
21728;BME280;11026;50.560;17.852;2023-12-20T07:52:50;98945.22;;;4.03;100.00
21728;BME280;11026;50.560;17.852;2023-12-20T07:55:17;98949.59;;;4.04;100.00
21728;BME280;11026;50.560;17.852;2023-12-20T07:57:44;98958.38;;;4.02;100.00
21728;BME280;11026;50.560;17.852;2023-12-20T08:00:12;98967.97;;;4.01;100.00
21728;BME280;11026;50.560;17.852;2023-12-20T08:02:38;98966.16;;;4.05;100.00
21728;BME280;11026;50.560;17.852;2023-12-20T08:05:06;98960.94;;;4.03;100.00
21728;BME280;11026;50.560;17.852;2023-12-20T08:07:33;98963.66;;;4.00;100.00
21728;BME280;11026;50.560;17.852;2023-12-20T08:10:01;98967.91;;;4.04;100.00
21728;BME280;11026;50.560;17.852;2023-12-20T08:12:28;98967.81;;;4.07;100.00
21728;BME280;11026;50.560;17.852;2023-12-20T08:14:54;98975.84;;;4.01;100.00
21728;BME280;11026;50.560;17.852;2023-12-20T08:17:22;98973.88;;;4.08;100.00
21728;BME280;11026;50.560;17.852;2023-12-20T08:19:50;98980.28;;;3.98;100.00
21728;BME280;11026;50.560;17.852;2023-12-20T08:22:18;98975.00;;;3.99;100.00
21728;BME280;11026;50.560;17.852;2023-12-20T08:24:45;98973.03;;;4.07;100.00
21728;BME280;11026;50.560;17.852;2023-12-20T08:27:12;98975.06;;;3.98;100.00
21728;BME280;11026;50.560;17.852;2023-12-20T08:29:40;98979.38;;;3.99;100.00
21728;BME280;11026;50.560;17.852;2023-12-20T08:32:07;98973.22;;;4.00;100.00
21728;BME280;11026;50.560;17.852;2023-12-20T08:34:34;98974.00;;;4.03;100.00
21728;BME280;11026;50.560;17.852;2023-12-20T08:37:01;98965.28;;;4.04;100.00
21728;BME280;11026;50.560;17.852;2023-12-20T08:39:28;98973.34;;;3.95;100.00
21728;BME280;11026;50.560;17.852;2023-12-20T08:41:56;98967.94;;;4.03;100.00
21728;BME280;11026;50.560;17.852;2023-12-20T08:44:23;98970.59;;;4.01;100.00
21728;BME280;11026;50.560;17.852;2023-12-20T08:46:50;98963.53;;;4.03;100.00
21728;BME280;11026;50.560;17.852;2023-12-20T08:49:17;98968.56;;;4.12;100.00
21728;BME280;11026;50.560;17.852;2023-12-20T08:51:44;98968.72;;;4.06;100.00
21728;BME280;11026;50.560;17.852;2023-12-20T08:54:13;98969.56;;;4.07;100.00
21728;BME280;11026;50.560;17.852;2023-12-20T08:56:41;98967.44;;;4.21;100.00
21728;BME280;11026;50.560;17.852;2023-12-20T08:59:08;98970.19;;;4.16;100.00
21728;BME280;11026;50.560;17.852;2023-12-20T09:01:36;98980.53;;;4.21;100.00
21728;BME280;11026;50.560;17.852;2023-12-20T09:04:06;98970.91;;;4.22;100.00
21728;BME280;11026;50.560;17.852;2023-12-20T09:06:35;98968.88;;;4.31;100.00
21728;BME280;11026;50.560;17.852;2023-12-20T09:09:02;98968.22;;;4.25;100.00
21728;BME280;11026;50.560;17.852;2023-12-20T09:11:29;98977.88;;;4.23;100.00
21728;BME280;11026;50.560;17.852;2023-12-20T09:13:58;98976.03;;;4.26;100.00
21728;BME280;11026;50.560;17.852;2023-12-20T09:16:25;98984.88;;;4.22;100.00
21728;BME280;11026;50.560;17.852;2023-12-20T09:18:53;98969.03;;;4.27;100.00
21728;BME280;11026;50.560;17.852;2023-12-20T09:21:20;98971.44;;;4.34;100.00
21728;BME280;11026;50.560;17.852;2023-12-20T09:23:47;98974.06;;;4.34;100.00
21728;BME280;11026;50.560;17.852;2023-12-20T09:26:15;98979.13;;;4.40;100.00
21728;BME280;11026;50.560;17.852;2023-12-20T09:28:45;98971.50;;;4.31;100.00
21728;BME280;11026;50.560;17.852;2023-12-20T09:31:13;98966.19;;;4.36;100.00
21728;BME280;11026;50.560;17.852;2023-12-20T09:33:40;98965.41;;;4.32;100.00
21728;BME280;11026;50.560;17.852;2023-12-20T09:36:07;98952.25;;;4.34;100.00
21728;BME280;11026;50.560;17.852;2023-12-20T09:38:37;98965.25;;;4.37;100.00
21728;BME280;11026;50.560;17.852;2023-12-20T09:41:05;98966.06;;;4.39;100.00
21728;BME280;11026;50.560;17.852;2023-12-20T09:43:35;98966.19;;;4.36;100.00
21728;BME280;11026;50.560;17.852;2023-12-20T09:46:06;98967.66;;;4.44;100.00
21728;BME280;11026;50.560;17.852;2023-12-20T09:48:37;98964.72;;;4.55;100.00
21728;BME280;11026;50.560;17.852;2023-12-20T09:51:05;98966.63;;;4.50;100.00
21728;BME280;11026;50.560;17.852;2023-12-20T09:53:35;98965.13;;;4.41;100.00
21728;BME280;11026;50.560;17.852;2023-12-20T09:56:03;98959.91;;;4.41;100.00
21728;BME280;11026;50.560;17.852;2023-12-20T09:58:32;98966.59;;;4.52;100.00
21728;BME280;11026;50.560;17.852;2023-12-20T10:01:01;98965.06;;;4.44;100.00
21728;BME280;11026;50.560;17.852;2023-12-20T10:03:28;98960.44;;;4.53;100.00
21728;BME280;11026;50.560;17.852;2023-12-20T10:05:57;98965.63;;;4.54;100.00
21728;BME280;11026;50.560;17.852;2023-12-20T10:08:28;98950.00;;;4.51;100.00
21728;BME280;11026;50.560;17.852;2023-12-20T10:10:56;98942.34;;;4.45;100.00
21728;BME280;11026;50.560;17.852;2023-12-20T10:13:29;98953.53;;;4.50;100.00
21728;BME280;11026;50.560;17.852;2023-12-20T10:15:57;98956.75;;;4.60;100.00
21728;BME280;11026;50.560;17.852;2023-12-20T10:18:24;98953.41;;;4.55;100.00
21728;BME280;11026;50.560;17.852;2023-12-20T10:21:06;98955.25;;;4.51;100.00
21728;BME280;11026;50.560;17.852;2023-12-20T10:23:37;98952.38;;;4.60;100.00
21728;BME280;11026;50.560;17.852;2023-12-20T10:26:06;98956.78;;;4.58;100.00
21728;BME280;11026;50.560;17.852;2023-12-20T10:28:34;98946.59;;;4.49;100.00
21728;BME280;11026;50.560;17.852;2023-12-20T10:31:02;98941.97;;;4.57;100.00
21728;BME280;11026;50.560;17.852;2023-12-20T10:33:31;98941.84;;;4.62;100.00
21728;BME280;11026;50.560;17.852;2023-12-20T10:36:01;98937.38;;;4.65;100.00
21728;BME280;11026;50.560;17.852;2023-12-20T10:38:30;98951.38;;;4.64;100.00
21728;BME280;11026;50.560;17.852;2023-12-20T10:40:58;98947.50;;;4.78;100.00
21728;BME280;11026;50.560;17.852;2023-12-20T10:43:32;98949.69;;;4.63;100.00
21728;BME280;11026;50.560;17.852;2023-12-20T10:46:00;98952.03;;;4.71;100.00
21728;BME280;11026;50.560;17.852;2023-12-20T10:48:30;98935.38;;;4.74;100.00
21728;BME280;11026;50.560;17.852;2023-12-20T10:50:59;98930.06;;;4.77;100.00
21728;BME280;11026;50.560;17.852;2023-12-20T10:53:27;98929.84;;;4.83;100.00
21728;BME280;11026;50.560;17.852;2023-12-20T10:55:55;98936.88;;;4.82;100.00
21728;BME280;11026;50.560;17.852;2023-12-20T10:58:25;98937.00;;;4.78;100.00
21728;BME280;11026;50.560;17.852;2023-12-20T11:00:59;98926.78;;;4.98;100.00
21728;BME280;11026;50.560;17.852;2023-12-20T11:03:32;98926.50;;;5.34;100.00
21728;BME280;11026;50.560;17.852;2023-12-20T11:09:08;98914.75;;;5.99;100.00
21728;BME280;11026;50.560;17.852;2023-12-20T11:11:56;98913.34;;;6.60;100.00
21728;BME280;11026;50.560;17.852;2023-12-20T11:14:36;98919.63;;;7.25;100.00
21728;BME280;11026;50.560;17.852;2023-12-20T11:17:11;98920.28;;;7.08;100.00
21728;BME280;11026;50.560;17.852;2023-12-20T11:22:20;98905.53;;;6.82;100.00
21728;BME280;11026;50.560;17.852;2023-12-20T11:24:48;98925.31;;;6.46;100.00
21728;BME280;11026;50.560;17.852;2023-12-20T11:27:16;98922.38;;;5.80;100.00
21728;BME280;11026;50.560;17.852;2023-12-20T11:29:51;98909.44;;;5.74;100.00
21728;BME280;11026;50.560;17.852;2023-12-20T11:35:26;98910.38;;;5.73;100.00
21728;BME280;11026;50.560;17.852;2023-12-20T11:37:51;98895.03;;;6.35;100.00
21728;BME280;11026;50.560;17.852;2023-12-20T11:40:19;98910.28;;;6.26;100.00
21728;BME280;11026;50.560;17.852;2023-12-20T11:42:51;98925.34;;;5.96;100.00
21728;BME280;11026;50.560;17.852;2023-12-20T11:45:21;98914.06;;;5.67;100.00
21728;BME280;11026;50.560;17.852;2023-12-20T11:47:53;98913.06;;;5.45;100.00
21728;BME280;11026;50.560;17.852;2023-12-20T11:50:24;98910.28;;;5.23;100.00
21728;BME280;11026;50.560;17.852;2023-12-20T11:52:53;98920.03;;;5.17;100.00
21728;BME280;11026;50.560;17.852;2023-12-20T11:55:23;98917.56;;;5.13;100.00
21728;BME280;11026;50.560;17.852;2023-12-20T11:57:51;98921.28;;;5.06;100.00
21728;BME280;11026;50.560;17.852;2023-12-20T12:00:19;98937.31;;;4.97;100.00
21728;BME280;11026;50.560;17.852;2023-12-20T12:02:59;98922.34;;;5.00;100.00
21728;BME280;11026;50.560;17.852;2023-12-20T12:05:26;98925.13;;;4.96;100.00
21728;BME280;11026;50.560;17.852;2023-12-20T12:07:54;98930.38;;;4.94;100.00
21728;BME280;11026;50.560;17.852;2023-12-20T12:10:25;98912.09;;;4.92;100.00
21728;BME280;11026;50.560;17.852;2023-12-20T12:12:52;98906.00;;;4.92;100.00
21728;BME280;11026;50.560;17.852;2023-12-20T12:15:22;98900.56;;;4.98;100.00
21728;BME280;11026;50.560;17.852;2023-12-20T12:17:56;98897.16;;;4.96;100.00
21728;BME280;11026;50.560;17.852;2023-12-20T12:20:25;98895.31;;;4.98;100.00
21728;BME280;11026;50.560;17.852;2023-12-20T12:23:09;98897.16;;;4.96;100.00
21728;BME280;11026;50.560;17.852;2023-12-20T12:25:37;98884.91;;;4.97;100.00
21728;BME280;11026;50.560;17.852;2023-12-20T12:28:12;98904.16;;;4.96;100.00
21728;BME280;11026;50.560;17.852;2023-12-20T12:30:41;98892.81;;;4.95;100.00
21728;BME280;11026;50.560;17.852;2023-12-20T12:33:19;98872.69;;;4.96;100.00
21728;BME280;11026;50.560;17.852;2023-12-20T12:35:47;98884.69;;;5.03;100.00
21728;BME280;11026;50.560;17.852;2023-12-20T12:38:15;98873.47;;;4.99;100.00
21728;BME280;11026;50.560;17.852;2023-12-20T12:40:44;98869.72;;;5.06;100.00
21728;BME280;11026;50.560;17.852;2023-12-20T12:43:12;98874.94;;;5.08;100.00
21728;BME280;11026;50.560;17.852;2023-12-20T12:45:39;98873.59;;;5.23;100.00
21728;BME280;11026;50.560;17.852;2023-12-20T12:48:06;98875.19;;;5.27;100.00
21728;BME280;11026;50.560;17.852;2023-12-20T12:50:34;98869.13;;;5.25;100.00
21728;BME280;11026;50.560;17.852;2023-12-20T12:53:03;98868.19;;;5.27;100.00
21728;BME280;11026;50.560;17.852;2023-12-20T12:55:30;98866.94;;;5.37;100.00
21728;BME280;11026;50.560;17.852;2023-12-20T12:57:57;98868.19;;;5.27;100.00
21728;BME280;11026;50.560;17.852;2023-12-20T13:00:24;98858.31;;;5.34;100.00
21728;BME280;11026;50.560;17.852;2023-12-20T13:02:52;98852.69;;;5.96;100.00
21728;BME280;11026;50.560;17.852;2023-12-20T13:05:19;98855.06;;;6.04;100.00